sensor_id;sensor_type;location;lat;lon;timestamp;temperature;humidity
32839;DHT22;19182;41.820;12.808;2023-08-06T00:01:18;17.20;99.90
32839;DHT22;19182;41.820;12.808;2023-08-06T00:03:46;17.20;99.90
32839;DHT22;19182;41.820;12.808;2023-08-06T00:06:13;17.10;99.90
32839;DHT22;19182;41.820;12.808;2023-08-06T00:08:39;17.20;99.90
32839;DHT22;19182;41.820;12.808;2023-08-06T00:11:06;17.10;99.90
32839;DHT22;19182;41.820;12.808;2023-08-06T00:13:31;17.20;99.90
32839;DHT22;19182;41.820;12.808;2023-08-06T00:16:08;17.20;99.90
32839;DHT22;19182;41.820;12.808;2023-08-06T00:18:34;17.20;99.90
32839;DHT22;19182;41.820;12.808;2023-08-06T00:21:00;17.20;99.90
32839;DHT22;19182;41.820;12.808;2023-08-06T00:23:25;17.20;99.90
32839;DHT22;19182;41.820;12.808;2023-08-06T00:25:51;17.20;99.90
32839;DHT22;19182;41.820;12.808;2023-08-06T00:28:18;17.20;99.90
32839;DHT22;19182;41.820;12.808;2023-08-06T00:30:45;17.30;99.90
32839;DHT22;19182;41.820;12.808;2023-08-06T00:33:11;17.20;99.90
32839;DHT22;19182;41.820;12.808;2023-08-06T00:35:36;17.20;99.90
32839;DHT22;19182;41.820;12.808;2023-08-06T00:38:02;16.60;99.90
32839;DHT22;19182;41.820;12.808;2023-08-06T00:40:28;17.20;99.90
32839;DHT22;19182;41.820;12.808;2023-08-06T00:42:56;17.20;99.90
32839;DHT22;19182;41.820;12.808;2023-08-06T00:45:23;17.40;99.90
32839;DHT22;19182;41.820;12.808;2023-08-06T00:47:48;17.30;99.90
32839;DHT22;19182;41.820;12.808;2023-08-06T00:50:14;17.40;99.90
32839;DHT22;19182;41.820;12.808;2023-08-06T00:52:41;17.20;99.90
32839;DHT22;19182;41.820;12.808;2023-08-06T00:55:07;17.40;99.90
32839;DHT22;19182;41.820;12.808;2023-08-06T00:57:33;17.50;99.90
32839;DHT22;19182;41.820;12.808;2023-08-06T00:59:59;17.60;99.90
32839;DHT22;19182;41.820;12.808;2023-08-06T01:02:25;17.50;99.90
32839;DHT22;19182;41.820;12.808;2023-08-06T01:04:51;17.60;99.90
32839;DHT22;19182;41.820;12.808;2023-08-06T01:10:23;17.50;99.90
32839;DHT22;19182;41.820;12.808;2023-08-06T01:13:01;17.40;99.90
32839;DHT22;19182;41.820;12.808;2023-08-06T01:15:35;17.40;99.90
32839;DHT22;19182;41.820;12.808;2023-08-06T01:18:03;17.50;99.90
32839;DHT22;19182;41.820;12.808;2023-08-06T01:20:30;17.50;99.90
32839;DHT22;19182;41.820;12.808;2023-08-06T01:22:57;17.40;99.90
32839;DHT22;19182;41.820;12.808;2023-08-06T01:25:33;17.40;99.90
32839;DHT22;19182;41.820;12.808;2023-08-06T01:28:11;17.30;99.90
32839;DHT22;19182;41.820;12.808;2023-08-06T01:30:42;17.40;99.90
32839;DHT22;19182;41.820;12.808;2023-08-06T01:33:14;17.40;99.90
32839;DHT22;19182;41.820;12.808;2023-08-06T01:35:42;17.40;99.90
32839;DHT22;19182;41.820;12.808;2023-08-06T01:38:08;17.40;99.90
32839;DHT22;19182;41.820;12.808;2023-08-06T01:40:34;17.30;99.90
32839;DHT22;19182;41.820;12.808;2023-08-06T01:43:00;17.30;99.90
32839;DHT22;19182;41.820;12.808;2023-08-06T01:45:26;17.30;99.90
32839;DHT22;19182;41.820;12.808;2023-08-06T01:47:51;17.30;99.90
32839;DHT22;19182;41.820;12.808;2023-08-06T01:50:17;17.20;99.90
32839;DHT22;19182;41.820;12.808;2023-08-06T01:52:43;17.20;99.90
32839;DHT22;19182;41.820;12.808;2023-08-06T01:55:08;17.10;99.90
32839;DHT22;19182;41.820;12.808;2023-08-06T01:57:34;17.20;99.90
32839;DHT22;19182;41.820;12.808;2023-08-06T02:00:00;17.00;99.90
32839;DHT22;19182;41.820;12.808;2023-08-06T02:02:25;17.00;99.90
32839;DHT22;19182;41.820;12.808;2023-08-06T02:04:51;16.90;99.90
32839;DHT22;19182;41.820;12.808;2023-08-06T02:07:17;16.90;99.90
32839;DHT22;19182;41.820;12.808;2023-08-06T02:09:42;16.80;99.90
32839;DHT22;19182;41.820;12.808;2023-08-06T02:12:08;16.70;99.90
32839;DHT22;19182;41.820;12.808;2023-08-06T02:14:34;16.80;99.90
32839;DHT22;19182;41.820;12.808;2023-08-06T02:17:00;16.80;99.90
32839;DHT22;19182;41.820;12.808;2023-08-06T02:19:26;16.60;99.90
32839;DHT22;19182;41.820;12.808;2023-08-06T02:21:52;16.60;99.90
32839;DHT22;19182;41.820;12.808;2023-08-06T02:24:18;16.60;99.90
32839;DHT22;19182;41.820;12.808;2023-08-06T02:26:43;16.70;99.90
32839;DHT22;19182;41.820;12.808;2023-08-06T02:29:09;16.60;99.90
32839;DHT22;19182;41.820;12.808;2023-08-06T02:31:34;16.60;99.90
32839;DHT22;19182;41.820;12.808;2023-08-06T02:34:00;16.50;99.90
32839;DHT22;19182;41.820;12.808;2023-08-06T02:36:26;16.30;99.90
32839;DHT22;19182;41.820;12.808;2023-08-06T02:38:55;16.30;99.90
32839;DHT22;19182;41.820;12.808;2023-08-06T02:41:20;14.90;99.90
32839;DHT22;19182;41.820;12.808;2023-08-06T02:43:46;16.50;99.90
32839;DHT22;19182;41.820;12.808;2023-08-06T02:51:04;16.60;99.90
32839;DHT22;19182;41.820;12.808;2023-08-06T02:53:29;16.50;99.90
32839;DHT22;19182;41.820;12.808;2023-08-06T02:55:55;16.40;99.90
32839;DHT22;19182;41.820;12.808;2023-08-06T02:58:21;16.30;99.90
32839;DHT22;19182;41.820;12.808;2023-08-06T03:01:03;16.30;99.90
32839;DHT22;19182;41.820;12.808;2023-08-06T03:03:33;16.40;99.90
32839;DHT22;19182;41.820;12.808;2023-08-06T03:05:59;16.40;99.90
32839;DHT22;19182;41.820;12.808;2023-08-06T03:08:25;16.40;99.90
32839;DHT22;19182;41.820;12.808;2023-08-06T03:10:51;16.30;99.90
32839;DHT22;19182;41.820;12.808;2023-08-06T03:13:17;16.30;99.90
32839;DHT22;19182;41.820;12.808;2023-08-06T03:15:57;16.20;99.90
32839;DHT22;19182;41.820;12.808;2023-08-06T03:18:23;16.20;99.90
32839;DHT22;19182;41.820;12.808;2023-08-06T03:20:49;16.10;99.90
32839;DHT22;19182;41.820;12.808;2023-08-06T03:23:18;16.30;99.90
32839;DHT22;19182;41.820;12.808;2023-08-06T03:25:44;16.30;99.90
32839;DHT22;19182;41.820;12.808;2023-08-06T03:30:36;16.30;99.90
32839;DHT22;19182;41.820;12.808;2023-08-06T03:33:02;16.10;99.90
32839;DHT22;19182;41.820;12.808;2023-08-06T03:35:27;16.00;99.90
32839;DHT22;19182;41.820;12.808;2023-08-06T03:40:19;16.10;99.90
32839;DHT22;19182;41.820;12.808;2023-08-06T03:42:45;16.00;99.90
32839;DHT22;19182;41.820;12.808;2023-08-06T03:45:10;15.90;99.90
32839;DHT22;19182;41.820;12.808;2023-08-06T03:47:36;16.00;99.90
32839;DHT22;19182;41.820;12.808;2023-08-06T03:50:02;16.00;99.90
32839;DHT22;19182;41.820;12.808;2023-08-06T03:52:28;16.10;99.90
32839;DHT22;19182;41.820;12.808;2023-08-06T03:54:54;16.00;99.90
32839;DHT22;19182;41.820;12.808;2023-08-06T03:57:19;15.90;99.90
32839;DHT22;19182;41.820;12.808;2023-08-06T03:59:45;15.90;99.90
32839;DHT22;19182;41.820;12.808;2023-08-06T04:04:37;15.90;99.90
32839;DHT22;19182;41.820;12.808;2023-08-06T04:07:03;15.90;99.90
32839;DHT22;19182;41.820;12.808;2023-08-06T04:09:29;16.00;99.90
32839;DHT22;19182;41.820;12.808;2023-08-06T04:14:21;15.90;99.90
32839;DHT22;19182;41.820;12.808;2023-08-06T04:16:47;15.70;99.90
32839;DHT22;19182;41.820;12.808;2023-08-06T04:19:13;15.60;99.90
32839;DHT22;19182;41.820;12.808;2023-08-06T04:21:38;15.50;99.90
32839;DHT22;19182;41.820;12.808;2023-08-06T04:26:30;15.40;99.90
32839;DHT22;19182;41.820;12.808;2023-08-06T04:28:56;15.40;99.90
32839;DHT22;19182;41.820;12.808;2023-08-06T04:31:22;12.80;99.90
32839;DHT22;19182;41.820;12.808;2023-08-06T04:33:48;15.60;99.90
32839;DHT22;19182;41.820;12.808;2023-08-06T04:36:14;15.60;99.90
32839;DHT22;19182;41.820;12.808;2023-08-06T04:38:40;15.80;99.90
32839;DHT22;19182;41.820;12.808;2023-08-06T04:41:10;15.70;99.90
32839;DHT22;19182;41.820;12.808;2023-08-06T04:43:36;15.90;99.90
32839;DHT22;19182;41.820;12.808;2023-08-06T04:46:02;15.90;99.90
32839;DHT22;19182;41.820;12.808;2023-08-06T04:48:29;16.10;99.90
32839;DHT22;19182;41.820;12.808;2023-08-06T04:50:54;15.90;99.90
32839;DHT22;19182;41.820;12.808;2023-08-06T04:53:20;15.90;99.90
32839;DHT22;19182;41.820;12.808;2023-08-06T04:55:46;15.90;99.90
32839;DHT22;19182;41.820;12.808;2023-08-06T04:58:12;16.00;99.90
32839;DHT22;19182;41.820;12.808;2023-08-06T05:00:38;15.90;99.90
32839;DHT22;19182;41.820;12.808;2023-08-06T05:03:05;16.00;99.90
32839;DHT22;19182;41.820;12.808;2023-08-06T05:05:32;16.00;99.90
32839;DHT22;19182;41.820;12.808;2023-08-06T05:07:58;15.80;99.90
32839;DHT22;19182;41.820;12.808;2023-08-06T05:10:27;15.90;99.90
32839;DHT22;19182;41.820;12.808;2023-08-06T05:12:53;17.10;99.90
32839;DHT22;19182;41.820;12.808;2023-08-06T05:15:19;16.30;99.90
32839;DHT22;19182;41.820;12.808;2023-08-06T05:17:45;16.40;99.90
32839;DHT22;19182;41.820;12.808;2023-08-06T05:20:11;16.50;99.90
32839;DHT22;19182;41.820;12.808;2023-08-06T05:22:37;16.60;99.90
32839;DHT22;19182;41.820;12.808;2023-08-06T05:25:02;16.80;99.90
32839;DHT22;19182;41.820;12.808;2023-08-06T05:27:28;17.00;99.90
32839;DHT22;19182;41.820;12.808;2023-08-06T05:29:56;17.10;99.90
32839;DHT22;19182;41.820;12.808;2023-08-06T05:32:22;17.20;99.90
32839;DHT22;19182;41.820;12.808;2023-08-06T05:34:48;17.40;99.90
32839;DHT22;19182;41.820;12.808;2023-08-06T05:37:14;17.50;99.90
32839;DHT22;19182;41.820;12.808;2023-08-06T05:39:40;17.70;99.90
32839;DHT22;19182;41.820;12.808;2023-08-06T05:42:05;17.80;99.90
32839;DHT22;19182;41.820;12.808;2023-08-06T05:44:32;17.90;99.90
32839;DHT22;19182;41.820;12.808;2023-08-06T05:46:57;19.20;99.90
32839;DHT22;19182;41.820;12.808;2023-08-06T05:49:23;18.00;99.90
32839;DHT22;19182;41.820;12.808;2023-08-06T05:51:49;18.10;99.90
32839;DHT22;19182;41.820;12.808;2023-08-06T05:54:14;18.20;99.90
32839;DHT22;19182;41.820;12.808;2023-08-06T05:56:40;18.40;99.90
32839;DHT22;19182;41.820;12.808;2023-08-06T05:59:06;18.50;99.90
32839;DHT22;19182;41.820;12.808;2023-08-06T06:01:32;18.60;99.90
32839;DHT22;19182;41.820;12.808;2023-08-06T06:03:57;18.70;99.90
32839;DHT22;19182;41.820;12.808;2023-08-06T06:06:23;18.90;99.90
32839;DHT22;19182;41.820;12.808;2023-08-06T06:08:49;19.10;99.90
32839;DHT22;19182;41.820;12.808;2023-08-06T06:11:14;18.00;99.90
32839;DHT22;19182;41.820;12.808;2023-08-06T06:13:40;19.30;99.90
32839;DHT22;19182;41.820;12.808;2023-08-06T06:16:05;19.50;99.90
32839;DHT22;19182;41.820;12.808;2023-08-06T06:18:32;19.50;99.90
32839;DHT22;19182;41.820;12.808;2023-08-06T06:20:59;19.70;99.90
32839;DHT22;19182;41.820;12.808;2023-08-06T06:23:25;19.80;99.90
32839;DHT22;19182;41.820;12.808;2023-08-06T06:25:51;19.90;99.90
32839;DHT22;19182;41.820;12.808;2023-08-06T06:28:19;20.20;99.90
32839;DHT22;19182;41.820;12.808;2023-08-06T06:30:45;20.30;99.90
32839;DHT22;19182;41.820;12.808;2023-08-06T06:33:10;20.50;99.90
32839;DHT22;19182;41.820;12.808;2023-08-06T06:35:37;20.80;99.90
32839;DHT22;19182;41.820;12.808;2023-08-06T06:38:02;20.90;99.90
32839;DHT22;19182;41.820;12.808;2023-08-06T06:40:28;21.20;99.90
32839;DHT22;19182;41.820;12.808;2023-08-06T06:42:54;23.60;99.90
32839;DHT22;19182;41.820;12.808;2023-08-06T06:45:19;23.00;99.90
32839;DHT22;19182;41.820;12.808;2023-08-06T06:47:46;24.00;99.90
32839;DHT22;19182;41.820;12.808;2023-08-06T06:50:12;24.60;99.90
32839;DHT22;19182;41.820;12.808;2023-08-06T06:52:37;25.00;99.90
32839;DHT22;19182;41.820;12.808;2023-08-06T06:55:03;25.00;99.90
32839;DHT22;19182;41.820;12.808;2023-08-06T06:57:29;25.10;99.90
32839;DHT22;19182;41.820;12.808;2023-08-06T06:59:58;25.10;99.90
32839;DHT22;19182;41.820;12.808;2023-08-06T07:02:24;25.10;99.90
32839;DHT22;19182;41.820;12.808;2023-08-06T07:04:50;24.90;99.90
32839;DHT22;19182;41.820;12.808;2023-08-06T07:07:16;24.40;99.90
32839;DHT22;19182;41.820;12.808;2023-08-06T07:09:44;24.20;99.90
32839;DHT22;19182;41.820;12.808;2023-08-06T07:12:10;24.00;99.90
32839;DHT22;19182;41.820;12.808;2023-08-06T07:14:35;24.00;99.90
32839;DHT22;19182;41.820;12.808;2023-08-06T07:17:01;25.70;99.90
32839;DHT22;19182;41.820;12.808;2023-08-06T07:19:27;23.90;99.90
32839;DHT22;19182;41.820;12.808;2023-08-06T07:21:54;23.80;99.90
32839;DHT22;19182;41.820;12.808;2023-08-06T07:24:21;23.60;99.90
32839;DHT22;19182;41.820;12.808;2023-08-06T07:26:47;23.60;99.90
32839;DHT22;19182;41.820;12.808;2023-08-06T07:29:14;23.70;99.90
32839;DHT22;19182;41.820;12.808;2023-08-06T07:31:45;22.50;99.90
32839;DHT22;19182;41.820;12.808;2023-08-06T07:34:10;23.70;99.90
32839;DHT22;19182;41.820;12.808;2023-08-06T07:36:36;23.60;99.90
32839;DHT22;19182;41.820;12.808;2023-08-06T07:39:02;23.70;99.90
32839;DHT22;19182;41.820;12.808;2023-08-06T07:41:29;23.80;99.90
32839;DHT22;19182;41.820;12.808;2023-08-06T07:43:56;24.10;99.90
32839;DHT22;19182;41.820;12.808;2023-08-06T07:46:22;24.30;99.90
32839;DHT22;19182;41.820;12.808;2023-08-06T07:48:48;24.10;99.90
32839;DHT22;19182;41.820;12.808;2023-08-06T07:51:13;24.00;99.90
32839;DHT22;19182;41.820;12.808;2023-08-06T07:53:39;24.30;99.90
32839;DHT22;19182;41.820;12.808;2023-08-06T07:56:05;24.60;99.90
32839;DHT22;19182;41.820;12.808;2023-08-06T07:58:31;24.50;99.90
32839;DHT22;19182;41.820;12.808;2023-08-06T08:00:57;24.50;99.90
32839;DHT22;19182;41.820;12.808;2023-08-06T08:03:25;24.40;99.90
32839;DHT22;19182;41.820;12.808;2023-08-06T08:05:54;24.60;99.90
32839;DHT22;19182;41.820;12.808;2023-08-06T08:08:24;24.60;99.90
32839;DHT22;19182;41.820;12.808;2023-08-06T08:10:51;24.90;99.90
32839;DHT22;19182;41.820;12.808;2023-08-06T08:13:16;25.10;99.90
32839;DHT22;19182;41.820;12.808;2023-08-06T08:15:42;25.40;99.90
32839;DHT22;19182;41.820;12.808;2023-08-06T08:18:09;25.70;99.90
32839;DHT22;19182;41.820;12.808;2023-08-06T08:20:34;25.60;99.90
32839;DHT22;19182;41.820;12.808;2023-08-06T08:23:01;26.00;99.90
32839;DHT22;19182;41.820;12.808;2023-08-06T08:25:29;26.10;99.90
32839;DHT22;19182;41.820;12.808;2023-08-06T08:27:58;26.20;99.90
32839;DHT22;19182;41.820;12.808;2023-08-06T08:30:23;26.20;99.90
32839;DHT22;19182;41.820;12.808;2023-08-06T08:32:51;25.80;99.90
32839;DHT22;19182;41.820;12.808;2023-08-06T08:35:17;25.60;99.90
32839;DHT22;19182;41.820;12.808;2023-08-06T08:37:43;25.50;99.90
32839;DHT22;19182;41.820;12.808;2023-08-06T08:40:09;25.80;99.90
32839;DHT22;19182;41.820;12.808;2023-08-06T08:42:36;25.40;99.90
32839;DHT22;19182;41.820;12.808;2023-08-06T08:45:03;25.80;99.90
32839;DHT22;19182;41.820;12.808;2023-08-06T08:47:30;25.60;99.90
32839;DHT22;19182;41.820;12.808;2023-08-06T08:49:57;25.20;99.90
32839;DHT22;19182;41.820;12.808;2023-08-06T08:52:23;25.00;99.90
32839;DHT22;19182;41.820;12.808;2023-08-06T08:54:51;25.20;99.90
32839;DHT22;19182;41.820;12.808;2023-08-06T08:57:19;25.30;99.90
32839;DHT22;19182;41.820;12.808;2023-08-06T08:59:44;25.70;99.90
32839;DHT22;19182;41.820;12.808;2023-08-06T09:02:12;25.80;99.90
32839;DHT22;19182;41.820;12.808;2023-08-06T09:04:42;25.90;99.90
32839;DHT22;19182;41.820;12.808;2023-08-06T09:07:11;26.30;99.90
32839;DHT22;19182;41.820;12.808;2023-08-06T09:09:39;26.50;99.90
32839;DHT22;19182;41.820;12.808;2023-08-06T09:12:12;26.50;99.90
32839;DHT22;19182;41.820;12.808;2023-08-06T09:14:39;26.70;99.90
32839;DHT22;19182;41.820;12.808;2023-08-06T09:17:05;26.30;99.90
32839;DHT22;19182;41.820;12.808;2023-08-06T09:19:32;26.00;99.90
32839;DHT22;19182;41.820;12.808;2023-08-06T09:21:58;25.30;99.90
32839;DHT22;19182;41.820;12.808;2023-08-06T09:24:25;25.10;99.90
32839;DHT22;19182;41.820;12.808;2023-08-06T09:26:53;25.20;99.90
32839;DHT22;19182;41.820;12.808;2023-08-06T09:29:21;25.50;99.90
32839;DHT22;19182;41.820;12.808;2023-08-06T09:31:50;26.20;99.90
32839;DHT22;19182;41.820;12.808;2023-08-06T09:34:22;26.30;99.90
32839;DHT22;19182;41.820;12.808;2023-08-06T09:36:54;26.40;99.90
32839;DHT22;19182;41.820;12.808;2023-08-06T09:39:29;26.30;99.90
32839;DHT22;19182;41.820;12.808;2023-08-06T09:41:59;26.10;99.90
32839;DHT22;19182;41.820;12.808;2023-08-06T09:44:27;26.70;99.90
32839;DHT22;19182;41.820;12.808;2023-08-06T09:46:57;26.70;99.90
32839;DHT22;19182;41.820;12.808;2023-08-06T09:52:02;25.70;99.90
32839;DHT22;19182;41.820;12.808;2023-08-06T09:54:28;26.10;99.90
32839;DHT22;19182;41.820;12.808;2023-08-06T09:56:56;26.10;99.90
32839;DHT22;19182;41.820;12.808;2023-08-06T09:59:25;26.20;99.90
32839;DHT22;19182;41.820;12.808;2023-08-06T10:01:51;26.40;99.90
32839;DHT22;19182;41.820;12.808;2023-08-06T10:04:17;26.30;99.90
32839;DHT22;19182;41.820;12.808;2023-08-06T10:06:46;26.40;99.90
32839;DHT22;19182;41.820;12.808;2023-08-06T10:11:39;25.70;99.90
32839;DHT22;19182;41.820;12.808;2023-08-06T10:14:32;25.90;99.90
32839;DHT22;19182;41.820;12.808;2023-08-06T10:17:00;26.00;99.90
32839;DHT22;19182;41.820;12.808;2023-08-06T10:19:26;26.20;99.90
32839;DHT22;19182;41.820;12.808;2023-08-06T10:22:15;26.00;99.90
32839;DHT22;19182;41.820;12.808;2023-08-06T10:24:58;25.80;99.90
32839;DHT22;19182;41.820;12.808;2023-08-06T10:27:41;25.60;99.90
32839;DHT22;19182;41.820;12.808;2023-08-06T10:30:22;25.50;99.90
32839;DHT22;19182;41.820;12.808;2023-08-06T10:32:54;25.70;99.90
32839;DHT22;19182;41.820;12.808;2023-08-06T10:35:41;26.10;99.90
32839;DHT22;19182;41.820;12.808;2023-08-06T10:38:19;25.90;99.90
32839;DHT22;19182;41.820;12.808;2023-08-06T10:41:03;26.00;99.90
32839;DHT22;19182;41.820;12.808;2023-08-06T10:43:36;26.40;99.90
32839;DHT22;19182;41.820;12.808;2023-08-06T10:46:10;26.00;99.90
32839;DHT22;19182;41.820;12.808;2023-08-06T10:48:40;25.90;99.90
32839;DHT22;19182;41.820;12.808;2023-08-06T10:51:12;25.90;99.90
32839;DHT22;19182;41.820;12.808;2023-08-06T10:53:42;26.00;99.90
32839;DHT22;19182;41.820;12.808;2023-08-06T10:56:18;26.10;99.90
32839;DHT22;19182;41.820;12.808;2023-08-06T10:58:49;26.10;99.90
32839;DHT22;19182;41.820;12.808;2023-08-06T11:01:15;26.20;99.90
32839;DHT22;19182;41.820;12.808;2023-08-06T11:03:46;26.20;99.90
32839;DHT22;19182;41.820;12.808;2023-08-06T11:06:18;26.10;99.90
32839;DHT22;19182;41.820;12.808;2023-08-06T11:08:53;26.30;99.90
32839;DHT22;19182;41.820;12.808;2023-08-06T11:11:19;25.90;99.90
32839;DHT22;19182;41.820;12.808;2023-08-06T11:13:46;26.00;99.90
32839;DHT22;19182;41.820;12.808;2023-08-06T11:16:14;25.80;99.90
32839;DHT22;19182;41.820;12.808;2023-08-06T11:18:41;26.00;99.90
32839;DHT22;19182;41.820;12.808;2023-08-06T11:21:08;26.20;99.90
32839;DHT22;19182;41.820;12.808;2023-08-06T11:23:34;26.30;99.90
32839;DHT22;19182;41.820;12.808;2023-08-06T11:26:00;26.30;99.90
32839;DHT22;19182;41.820;12.808;2023-08-06T11:28:26;26.50;99.90
32839;DHT22;19182;41.820;12.808;2023-08-06T11:30:53;26.40;99.90
32839;DHT22;19182;41.820;12.808;2023-08-06T11:33:28;26.20;99.90
32839;DHT22;19182;41.820;12.808;2023-08-06T11:35:59;26.40;99.90
32839;DHT22;19182;41.820;12.808;2023-08-06T11:38:31;26.70;99.90
32839;DHT22;19182;41.820;12.808;2023-08-06T11:40:57;26.90;99.90
32839;DHT22;19182;41.820;12.808;2023-08-06T11:43:23;26.60;99.90
32839;DHT22;19182;41.820;12.808;2023-08-06T11:45:50;26.50;99.90
32839;DHT22;19182;41.820;12.808;2023-08-06T11:48:51;26.50;99.90
32839;DHT22;19182;41.820;12.808;2023-08-06T11:51:16;26.60;99.90
32839;DHT22;19182;41.820;12.808;2023-08-06T11:53:48;26.70;99.90
32839;DHT22;19182;41.820;12.808;2023-08-06T11:56:17;26.30;99.90
32839;DHT22;19182;41.820;12.808;2023-08-06T11:58:43;26.50;99.90
32839;DHT22;19182;41.820;12.808;2023-08-06T12:01:08;26.60;99.90
32839;DHT22;19182;41.820;12.808;2023-08-06T12:04:05;26.50;99.90
32839;DHT22;19182;41.820;12.808;2023-08-06T12:06:41;26.40;99.90
32839;DHT22;19182;41.820;12.808;2023-08-06T12:09:09;26.30;99.90
32839;DHT22;19182;41.820;12.808;2023-08-06T12:11:35;26.30;99.90
32839;DHT22;19182;41.820;12.808;2023-08-06T12:14:01;26.20;99.90
32839;DHT22;19182;41.820;12.808;2023-08-06T12:16:28;26.30;99.90
32839;DHT22;19182;41.820;12.808;2023-08-06T12:18:53;26.10;99.90
32839;DHT22;19182;41.820;12.808;2023-08-06T12:21:20;26.10;99.90
32839;DHT22;19182;41.820;12.808;2023-08-06T12:23:47;26.10;99.90
32839;DHT22;19182;41.820;12.808;2023-08-06T12:26:14;26.50;99.90
32839;DHT22;19182;41.820;12.808;2023-08-06T12:28:48;26.90;99.90
32839;DHT22;19182;41.820;12.808;2023-08-06T12:31:14;27.10;99.90
32839;DHT22;19182;41.820;12.808;2023-08-06T12:33:40;27.00;99.90
32839;DHT22;19182;41.820;12.808;2023-08-06T12:36:07;26.50;99.90
32839;DHT22;19182;41.820;12.808;2023-08-06T12:38:33;26.50;99.90
32839;DHT22;19182;41.820;12.808;2023-08-06T12:40:59;26.50;99.90
32839;DHT22;19182;41.820;12.808;2023-08-06T12:43:26;26.60;99.90
32839;DHT22;19182;41.820;12.808;2023-08-06T12:45:51;26.50;99.90
32839;DHT22;19182;41.820;12.808;2023-08-06T12:48:17;26.60;99.90
32839;DHT22;19182;41.820;12.808;2023-08-06T12:50:45;26.80;99.90
32839;DHT22;19182;41.820;12.808;2023-08-06T12:53:11;26.90;99.90
32839;DHT22;19182;41.820;12.808;2023-08-06T12:55:37;26.40;99.90
32839;DHT22;19182;41.820;12.808;2023-08-06T12:58:02;26.40;99.90
32839;DHT22;19182;41.820;12.808;2023-08-06T13:00:28;26.70;99.90
32839;DHT22;19182;41.820;12.808;2023-08-06T13:02:54;27.00;99.90
32839;DHT22;19182;41.820;12.808;2023-08-06T13:05:20;27.00;99.90
32839;DHT22;19182;41.820;12.808;2023-08-06T13:07:45;26.50;99.90
32839;DHT22;19182;41.820;12.808;2023-08-06T13:10:11;26.00;99.90
32839;DHT22;19182;41.820;12.808;2023-08-06T13:12:37;26.20;99.90
32839;DHT22;19182;41.820;12.808;2023-08-06T13:15:03;26.50;99.90
32839;DHT22;19182;41.820;12.808;2023-08-06T13:17:28;26.50;99.90
32839;DHT22;19182;41.820;12.808;2023-08-06T13:19:57;26.50;99.90
32839;DHT22;19182;41.820;12.808;2023-08-06T13:22:23;26.50;99.90
32839;DHT22;19182;41.820;12.808;2023-08-06T13:24:48;26.40;99.90
32839;DHT22;19182;41.820;12.808;2023-08-06T13:27:14;26.70;99.90
32839;DHT22;19182;41.820;12.808;2023-08-06T13:29:40;26.90;99.90
32839;DHT22;19182;41.820;12.808;2023-08-06T13:32:07;26.90;99.90
32839;DHT22;19182;41.820;12.808;2023-08-06T13:34:32;27.00;99.90
32839;DHT22;19182;41.820;12.808;2023-08-06T13:36:58;26.90;99.90
32839;DHT22;19182;41.820;12.808;2023-08-06T13:39:24;26.60;99.90
32839;DHT22;19182;41.820;12.808;2023-08-06T13:41:50;26.70;99.90
32839;DHT22;19182;41.820;12.808;2023-08-06T13:44:15;26.40;99.90
32839;DHT22;19182;41.820;12.808;2023-08-06T13:46:42;26.60;99.90
32839;DHT22;19182;41.820;12.808;2023-08-06T13:49:08;26.50;99.90
32839;DHT22;19182;41.820;12.808;2023-08-06T13:51:33;26.40;99.90
32839;DHT22;19182;41.820;12.808;2023-08-06T13:54:01;28.40;99.90
32839;DHT22;19182;41.820;12.808;2023-08-06T13:56:28;26.60;99.90
32839;DHT22;19182;41.820;12.808;2023-08-06T13:58:56;26.70;99.90
32839;DHT22;19182;41.820;12.808;2023-08-06T14:01:22;26.90;99.90
32839;DHT22;19182;41.820;12.808;2023-08-06T14:03:48;26.40;99.90
32839;DHT22;19182;41.820;12.808;2023-08-06T14:06:14;26.10;99.90
32839;DHT22;19182;41.820;12.808;2023-08-06T14:08:39;26.10;99.90
32839;DHT22;19182;41.820;12.808;2023-08-06T14:11:05;26.10;99.90
32839;DHT22;19182;41.820;12.808;2023-08-06T14:13:34;26.30;99.90
32839;DHT22;19182;41.820;12.808;2023-08-06T14:16:00;26.00;99.90
32839;DHT22;19182;41.820;12.808;2023-08-06T14:18:26;26.00;99.90
32839;DHT22;19182;41.820;12.808;2023-08-06T14:20:53;26.00;99.90
32839;DHT22;19182;41.820;12.808;2023-08-06T14:23:18;26.00;99.90
32839;DHT22;19182;41.820;12.808;2023-08-06T14:25:44;26.10;99.90
32839;DHT22;19182;41.820;12.808;2023-08-06T14:28:10;26.10;99.90
32839;DHT22;19182;41.820;12.808;2023-08-06T14:30:36;25.90;99.90
32839;DHT22;19182;41.820;12.808;2023-08-06T14:33:02;25.90;99.90
32839;DHT22;19182;41.820;12.808;2023-08-06T14:35:28;25.80;99.90
32839;DHT22;19182;41.820;12.808;2023-08-06T14:37:55;25.70;99.90
32839;DHT22;19182;41.820;12.808;2023-08-06T14:40:22;25.70;99.90
32839;DHT22;19182;41.820;12.808;2023-08-06T14:42:49;25.70;99.90
32839;DHT22;19182;41.820;12.808;2023-08-06T14:45:14;25.70;99.90
32839;DHT22;19182;41.820;12.808;2023-08-06T14:47:40;25.70;99.90
32839;DHT22;19182;41.820;12.808;2023-08-06T14:50:06;25.70;99.90
32839;DHT22;19182;41.820;12.808;2023-08-06T14:52:32;25.70;99.90
32839;DHT22;19182;41.820;12.808;2023-08-06T14:55:00;25.70;99.90
32839;DHT22;19182;41.820;12.808;2023-08-06T14:57:25;25.60;99.90
32839;DHT22;19182;41.820;12.808;2023-08-06T14:59:53;25.60;99.90
32839;DHT22;19182;41.820;12.808;2023-08-06T15:02:21;25.50;99.90
32839;DHT22;19182;41.820;12.808;2023-08-06T15:04:48;25.40;99.90
32839;DHT22;19182;41.820;12.808;2023-08-06T15:07:15;25.50;99.90
32839;DHT22;19182;41.820;12.808;2023-08-06T15:09:41;25.40;99.90
32839;DHT22;19182;41.820;12.808;2023-08-06T15:12:08;25.40;99.90
32839;DHT22;19182;41.820;12.808;2023-08-06T15:14:35;25.50;99.90
32839;DHT22;19182;41.820;12.808;2023-08-06T15:17:01;25.60;99.90
32839;DHT22;19182;41.820;12.808;2023-08-06T15:19:26;25.40;99.90
32839;DHT22;19182;41.820;12.808;2023-08-06T15:21:52;25.40;99.90
32839;DHT22;19182;41.820;12.808;2023-08-06T15:24:18;25.20;99.90
32839;DHT22;19182;41.820;12.808;2023-08-06T15:26:43;25.20;99.90
32839;DHT22;19182;41.820;12.808;2023-08-06T15:29:09;25.20;99.90
32839;DHT22;19182;41.820;12.808;2023-08-06T15:31:36;25.20;99.90
32839;DHT22;19182;41.820;12.808;2023-08-06T15:34:06;25.20;99.90
32839;DHT22;19182;41.820;12.808;2023-08-06T15:36:33;25.30;99.90
32839;DHT22;19182;41.820;12.808;2023-08-06T15:38:59;25.30;99.90
32839;DHT22;19182;41.820;12.808;2023-08-06T15:41:26;25.20;99.90